sensor_id;sensor_type;location;lat;lon;timestamp;pressure;altitude;pressure_sealevel;temperature
14666;BMP280;7420;53.574;10.040;2023-09-12T00:04:51;21573.16;;;-136.87
14666;BMP280;7420;53.574;10.040;2023-09-12T00:07:16;21762.91;;;-136.87
14666;BMP280;7420;53.574;10.040;2023-09-12T00:09:41;22273.72;;;-136.87
14666;BMP280;7420;53.574;10.040;2023-09-12T00:12:07;22441.31;;;-136.87
14666;BMP280;7420;53.574;10.040;2023-09-12T00:14:33;22881.56;;;-136.87
14666;BMP280;7420;53.574;10.040;2023-09-12T00:19:44;23253.19;;;-136.87
14666;BMP280;7420;53.574;10.040;2023-09-12T00:22:09;23309.75;;;-136.87
14666;BMP280;7420;53.574;10.040;2023-09-12T00:24:34;23546.09;;;-136.87
14666;BMP280;7420;53.574;10.040;2023-09-12T00:27:00;23750.13;;;-136.87
14666;BMP280;7420;53.574;10.040;2023-09-12T00:29:25;23762.25;;;-136.87
14666;BMP280;7420;53.574;10.040;2023-09-12T00:31:50;23408.72;;;-136.87
14666;BMP280;7420;53.574;10.040;2023-09-12T00:34:16;24057.22;;;-136.87
14666;BMP280;7420;53.574;10.040;2023-09-12T00:36:42;24063.28;;;-136.87
14666;BMP280;7420;53.574;10.040;2023-09-12T00:39:07;23929.94;;;-136.87
14666;BMP280;7420;53.574;10.040;2023-09-12T00:41:33;24057.22;;;-136.87
14666;BMP280;7420;53.574;10.040;2023-09-12T00:43:58;24105.72;;;-136.87
14666;BMP280;7420;53.574;10.040;2023-09-12T00:46:24;24020.88;;;-136.87
14666;BMP280;7420;53.574;10.040;2023-09-12T00:48:51;24037.03;;;-136.87
14666;BMP280;7420;53.574;10.040;2023-09-12T00:51:17;24035.00;;;-136.87
14666;BMP280;7420;53.574;10.040;2023-09-12T00:53:43;24045.13;;;-136.87
14666;BMP280;7420;53.574;10.040;2023-09-12T00:56:09;24481.56;;;-136.87
14666;BMP280;7420;53.574;10.040;2023-09-12T00:58:35;24683.66;;;-136.87
14666;BMP280;7420;53.574;10.040;2023-09-12T01:01:00;24564.44;;;-136.87
14666;BMP280;7420;53.574;10.040;2023-09-12T01:03:25;24453.28;;;-136.87
14666;BMP280;7420;53.574;10.040;2023-09-12T01:05:52;24416.91;;;-136.87
14666;BMP280;7420;53.574;10.040;2023-09-12T01:08:18;24497.75;;;-136.87
14666;BMP280;7420;53.574;10.040;2023-09-12T01:10:44;24453.28;;;-136.87
14666;BMP280;7420;53.574;10.040;2023-09-12T01:13:13;24495.72;;;-136.87
14666;BMP280;7420;53.574;10.040;2023-09-12T01:15:40;24463.38;;;-136.87
14666;BMP280;7420;53.574;10.040;2023-09-12T01:18:06;24625.06;;;-136.87
14666;BMP280;7420;53.574;10.040;2023-09-12T01:20:34;24623.03;;;-136.87
14666;BMP280;7420;53.574;10.040;2023-09-12T01:26:01;24687.69;;;-136.87
14666;BMP280;7420;53.574;10.040;2023-09-12T01:28:30;24720.03;;;-136.87
14666;BMP280;7420;53.574;10.040;2023-09-12T01:30:57;24489.66;;;-136.87
14666;BMP280;7420;53.574;10.040;2023-09-12T01:33:23;24457.31;;;-136.87
14666;BMP280;7420;53.574;10.040;2023-09-12T01:35:48;24202.72;;;-136.87
14666;BMP280;7420;53.574;10.040;2023-09-12T01:38:14;24479.56;;;-136.87
14666;BMP280;7420;53.574;10.040;2023-09-12T01:40:47;24596.75;;;-136.87
14666;BMP280;7420;53.574;10.040;2023-09-12T01:43:15;24612.94;;;-136.87
14666;BMP280;7420;53.574;10.040;2023-09-12T01:45:42;24489.66;;;-136.87
14666;BMP280;7420;53.574;10.040;2023-09-12T01:48:08;24269.41;;;-136.87
14666;BMP280;7420;53.574;10.040;2023-09-12T01:50:34;24192.63;;;-136.87
14666;BMP280;7420;53.574;10.040;2023-09-12T01:53:00;24289.59;;;-136.87
14666;BMP280;7420;53.574;10.040;2023-09-12T01:55:26;24412.88;;;-136.87
14666;BMP280;7420;53.574;10.040;2023-09-12T01:57:52;24243.13;;;-136.87
14666;BMP280;7420;53.574;10.040;2023-09-12T02:00:18;24562.41;;;-136.87
14666;BMP280;7420;53.574;10.040;2023-09-12T02:02:45;24643.25;;;-136.87
14666;BMP280;7420;53.574;10.040;2023-09-12T02:05:18;24635.16;;;-136.87
14666;BMP280;7420;53.574;10.040;2023-09-12T02:07:45;24847.38;;;-136.87
14666;BMP280;7420;53.574;10.040;2023-09-12T02:10:11;24998.94;;;-136.87
14666;BMP280;7420;53.574;10.040;2023-09-12T02:12:37;25091.94;;;-136.87
14666;BMP280;7420;53.574;10.040;2023-09-12T02:15:03;25223.31;;;-136.87
14666;BMP280;7420;53.574;10.040;2023-09-12T02:17:29;25358.75;;;-136.87
14666;BMP280;7420;53.574;10.040;2023-09-12T02:19:54;25562.91;;;-136.87
14666;BMP280;7420;53.574;10.040;2023-09-12T02:22:20;25492.16;;;-136.87
14666;BMP280;7420;53.574;10.040;2023-09-12T02:24:45;25645.81;;;-136.87
14666;BMP280;7420;53.574;10.040;2023-09-12T02:27:10;25542.69;;;-136.87
14666;BMP280;7420;53.574;10.040;2023-09-12T02:29:38;25455.78;;;-136.87
14666;BMP280;7420;53.574;10.040;2023-09-12T02:32:04;25362.78;;;-136.87
14666;BMP280;7420;53.574;10.040;2023-09-12T02:34:29;25455.78;;;-136.87
14666;BMP280;7420;53.574;10.040;2023-09-12T02:36:55;25926.84;;;-136.87
14666;BMP280;7420;53.574;10.040;2023-09-12T02:39:20;25623.56;;;-136.87
14666;BMP280;7420;53.574;10.040;2023-09-12T02:41:45;25637.72;;;-136.87
14666;BMP280;7420;53.574;10.040;2023-09-12T02:44:11;25710.50;;;-136.87
14666;BMP280;7420;53.574;10.040;2023-09-12T02:46:37;25744.88;;;-136.87
14666;BMP280;7420;53.574;10.040;2023-09-12T02:49:02;25757.00;;;-136.87
14666;BMP280;7420;53.574;10.040;2023-09-12T02:51:28;25696.34;;;-136.87
14666;BMP280;7420;53.574;10.040;2023-09-12T02:53:53;25718.59;;;-136.87
14666;BMP280;7420;53.574;10.040;2023-09-12T02:56:19;25860.09;;;-136.87
14666;BMP280;7420;53.574;10.040;2023-09-12T02:58:47;25908.63;;;-136.87
14666;BMP280;7420;53.574;10.040;2023-09-12T03:01:19;25940.97;;;-136.87
14666;BMP280;7420;53.574;10.040;2023-09-12T03:03:48;25945.03;;;-136.87
14666;BMP280;7420;53.574;10.040;2023-09-12T03:06:14;26114.88;;;-136.87
14666;BMP280;7420;53.574;10.040;2023-09-12T03:08:40;26153.28;;;-136.87
14666;BMP280;7420;53.574;10.040;2023-09-12T03:11:06;26100.72;;;-136.87
14666;BMP280;7420;53.574;10.040;2023-09-12T03:13:33;26171.50;;;-136.87
14666;BMP280;7420;53.574;10.040;2023-09-12T03:15:59;26143.19;;;-136.87
14666;BMP280;7420;53.574;10.040;2023-09-12T03:18:25;26139.13;;;-136.87
14666;BMP280;7420;53.574;10.040;2023-09-12T03:20:50;26302.94;;;-136.87
14666;BMP280;7420;53.574;10.040;2023-09-12T03:23:15;26430.31;;;-136.87
14666;BMP280;7420;53.574;10.040;2023-09-12T03:25:41;26511.22;;;-136.87
14666;BMP280;7420;53.574;10.040;2023-09-12T03:28:06;26689.19;;;-136.87
14666;BMP280;7420;53.574;10.040;2023-09-12T03:30:36;26840.88;;;-136.87
14666;BMP280;7420;53.574;10.040;2023-09-12T03:33:05;26660.88;;;-136.87
14666;BMP280;7420;53.574;10.040;2023-09-12T03:35:32;26616.38;;;-136.87
14666;BMP280;7420;53.574;10.040;2023-09-12T03:37:57;26434.38;;;-136.87
14666;BMP280;7420;53.574;10.040;2023-09-12T03:40:22;26685.13;;;-136.87
14666;BMP280;7420;53.574;10.040;2023-09-12T03:42:50;26650.75;;;-136.87
14666;BMP280;7420;53.574;10.040;2023-09-12T03:45:16;26622.44;;;-136.87
14666;BMP280;7420;53.574;10.040;2023-09-12T03:47:41;26770.09;;;-136.87
14666;BMP280;7420;53.574;10.040;2023-09-12T03:50:07;26909.63;;;-136.87
14666;BMP280;7420;53.574;10.040;2023-09-12T03:52:33;26757.94;;;-136.87
14666;BMP280;7420;53.574;10.040;2023-09-12T03:54:58;26828.72;;;-136.87
14666;BMP280;7420;53.574;10.040;2023-09-12T03:57:26;26770.09;;;-136.87
14666;BMP280;7420;53.574;10.040;2023-09-12T03:59:51;26988.53;;;-136.87
14666;BMP280;7420;53.574;10.040;2023-09-12T04:02:17;27245.41;;;-136.87
14666;BMP280;7420;53.574;10.040;2023-09-12T04:04:43;27126.06;;;-136.87
14666;BMP280;7420;53.574;10.040;2023-09-12T04:07:08;27065.38;;;-136.87
14666;BMP280;7420;53.574;10.040;2023-09-12T04:09:33;26978.41;;;-136.87
14666;BMP280;7420;53.574;10.040;2023-09-12T04:11:59;26911.66;;;-136.87
14666;BMP280;7420;53.574;10.040;2023-09-12T04:14:24;27022.91;;;-136.87
14666;BMP280;7420;53.574;10.040;2023-09-12T04:16:49;27140.22;;;-136.87
14666;BMP280;7420;53.574;10.040;2023-09-12T04:19:15;27223.16;;;-136.87
14666;BMP280;7420;53.574;10.040;2023-09-12T04:21:40;27289.91;;;-136.87
14666;BMP280;7420;53.574;10.040;2023-09-12T04:24:06;27150.34;;;-136.87
14666;BMP280;7420;53.574;10.040;2023-09-12T04:26:32;27053.25;;;-136.87
14666;BMP280;7420;53.574;10.040;2023-09-12T04:28:57;27180.69;;;-136.87
14666;BMP280;7420;53.574;10.040;2023-09-12T04:31:23;27552.91;;;-136.87
14666;BMP280;7420;53.574;10.040;2023-09-12T04:33:50;27927.19;;;-136.87
14666;BMP280;7420;53.574;10.040;2023-09-12T04:36:16;27939.31;;;-136.87
14666;BMP280;7420;53.574;10.040;2023-09-12T04:38:41;27935.28;;;-136.87
14666;BMP280;7420;53.574;10.040;2023-09-12T04:41:07;28006.09;;;-136.87
14666;BMP280;7420;53.574;10.040;2023-09-12T04:43:33;28058.72;;;-136.87
14666;BMP280;7420;53.574;10.040;2023-09-12T04:45:59;28044.53;;;-136.87
14666;BMP280;7420;53.574;10.040;2023-09-12T04:48:24;28012.16;;;-136.87
14666;BMP280;7420;53.574;10.040;2023-09-12T04:50:50;28016.22;;;-136.87
14666;BMP280;7420;53.574;10.040;2023-09-12T04:53:15;28463.44;;;-136.87
14666;BMP280;7420;53.574;10.040;2023-09-12T04:55:41;28451.28;;;-136.87
14666;BMP280;7420;53.574;10.040;2023-09-12T04:58:07;28295.47;;;-136.87
14666;BMP280;7420;53.574;10.040;2023-09-12T05:00:33;28117.38;;;-136.87
14666;BMP280;7420;53.574;10.040;2023-09-12T05:02:59;27888.75;;;-136.87
14666;BMP280;7420;53.574;10.040;2023-09-12T05:05:25;27710.69;;;-136.87
14666;BMP280;7420;53.574;10.040;2023-09-12T05:07:50;27937.31;;;-136.87
14666;BMP280;7420;53.574;10.040;2023-09-12T05:10:19;27959.56;;;-136.87
14666;BMP280;7420;53.574;10.040;2023-09-12T05:12:45;28313.66;;;-136.87
14666;BMP280;7420;53.574;10.040;2023-09-12T05:15:11;28263.09;;;-136.87
14666;BMP280;7420;53.574;10.040;2023-09-12T05:17:36;28101.19;;;-136.87
14666;BMP280;7420;53.574;10.040;2023-09-12T05:20:03;28226.66;;;-136.87
14666;BMP280;7420;53.574;10.040;2023-09-12T05:22:30;28390.56;;;-136.87
14666;BMP280;7420;53.574;10.040;2023-09-12T05:24:56;28226.66;;;-136.87
14666;BMP280;7420;53.574;10.040;2023-09-12T05:27:21;28218.56;;;-136.87
14666;BMP280;7420;53.574;10.040;2023-09-12T05:29:46;28323.78;;;-136.87
14666;BMP280;7420;53.574;10.040;2023-09-12T05:32:12;28342.00;;;-136.87
14666;BMP280;7420;53.574;10.040;2023-09-12T05:34:37;28392.59;;;-136.87
14666;BMP280;7420;53.574;10.040;2023-09-12T05:37:03;28463.44;;;-136.87
14666;BMP280;7420;53.574;10.040;2023-09-12T05:39:28;28742.72;;;-136.87
14666;BMP280;7420;53.574;10.040;2023-09-12T05:41:54;28845.94;;;-136.87
14666;BMP280;7420;53.574;10.040;2023-09-12T05:44:19;28817.59;;;-136.87
14666;BMP280;7420;53.574;10.040;2023-09-12T05:46:48;28613.19;;;-136.87
14666;BMP280;7420;53.574;10.040;2023-09-12T05:49:14;28301.53;;;-136.87
14666;BMP280;7420;53.574;10.040;2023-09-12T05:51:40;28400.69;;;-136.87
14666;BMP280;7420;53.574;10.040;2023-09-12T05:54:06;28738.66;;;-136.87
14666;BMP280;7420;53.574;10.040;2023-09-12T05:56:31;28874.28;;;-136.87
14666;BMP280;7420;53.574;10.040;2023-09-12T05:58:57;28803.44;;;-136.87
14666;BMP280;7420;53.574;10.040;2023-09-12T06:01:22;28396.66;;;-136.87
14666;BMP280;7420;53.574;10.040;2023-09-12T06:03:47;28244.88;;;-136.87
14666;BMP280;7420;53.574;10.040;2023-09-12T06:06:14;28424.97;;;-136.87
14666;BMP280;7420;53.574;10.040;2023-09-12T06:08:40;28374.38;;;-136.87
14666;BMP280;7420;53.574;10.040;2023-09-12T06:11:05;28151.78;;;-136.87
14666;BMP280;7420;53.574;10.040;2023-09-12T06:13:31;27824.00;;;-136.87
14666;BMP280;7420;53.574;10.040;2023-09-12T06:15:58;27908.97;;;-136.87
14666;BMP280;7420;53.574;10.040;2023-09-12T06:18:23;27915.03;;;-136.87
14666;BMP280;7420;53.574;10.040;2023-09-12T06:20:49;27874.59;;;-136.87
14666;BMP280;7420;53.574;10.040;2023-09-12T06:23:17;27902.91;;;-136.87
14666;BMP280;7420;53.574;10.040;2023-09-12T06:25:43;27983.84;;;-136.87
14666;BMP280;7420;53.574;10.040;2023-09-12T06:28:09;27811.84;;;-136.87
14666;BMP280;7420;53.574;10.040;2023-09-12T06:30:35;27985.88;;;-136.87
14666;BMP280;7420;53.574;10.040;2023-09-12T06:35:49;28192.25;;;-136.87
14666;BMP280;7420;53.574;10.040;2023-09-12T06:38:16;28180.13;;;-136.87
14666;BMP280;7420;53.574;10.040;2023-09-12T06:40:42;28091.09;;;-136.87
14666;BMP280;7420;53.574;10.040;2023-09-12T06:43:08;28010.16;;;-136.87
14666;BMP280;7420;53.574;10.040;2023-09-12T06:45:33;27902.91;;;-136.87
14666;BMP280;7420;53.574;10.040;2023-09-12T06:48:02;28143.69;;;-136.87
14666;BMP280;7420;53.574;10.040;2023-09-12T06:50:27;28066.81;;;-136.87
14666;BMP280;7420;53.574;10.040;2023-09-12T06:52:52;28277.25;;;-136.87
14666;BMP280;7420;53.574;10.040;2023-09-12T06:55:18;28133.56;;;-136.87
14666;BMP280;7420;53.574;10.040;2023-09-12T06:57:43;27971.69;;;-136.87
14666;BMP280;7420;53.574;10.040;2023-09-12T07:00:09;27838.16;;;-136.87
14666;BMP280;7420;53.574;10.040;2023-09-12T07:02:35;27957.53;;;-136.87
14666;BMP280;7420;53.574;10.040;2023-09-12T07:05:00;27726.88;;;-136.87
14666;BMP280;7420;53.574;10.040;2023-09-12T07:07:25;27567.06;;;-136.87
14666;BMP280;7420;53.574;10.040;2023-09-12T07:09:51;27664.16;;;-136.87
14666;BMP280;7420;53.574;10.040;2023-09-12T07:12:16;27874.59;;;-136.87
14666;BMP280;7420;53.574;10.040;2023-09-12T07:14:42;27708.69;;;-136.87
14666;BMP280;7420;53.574;10.040;2023-09-12T07:17:07;27631.78;;;-136.87
14666;BMP280;7420;53.574;10.040;2023-09-12T07:19:33;27680.34;;;-136.87
14666;BMP280;7420;53.574;10.040;2023-09-12T07:21:58;27872.56;;;-136.87
14666;BMP280;7420;53.574;10.040;2023-09-12T07:24:27;27546.81;;;-136.87
14666;BMP280;7420;53.574;10.040;2023-09-12T07:26:52;27569.09;;;-136.87
14666;BMP280;7420;53.574;10.040;2023-09-12T07:29:18;27579.19;;;-136.87
14666;BMP280;7420;53.574;10.040;2023-09-12T07:31:43;27312.16;;;-136.87
14666;BMP280;7420;53.574;10.040;2023-09-12T07:34:08;27283.84;;;-136.87
14666;BMP280;7420;53.574;10.040;2023-09-12T07:36:35;27093.69;;;-136.87
14666;BMP280;7420;53.574;10.040;2023-09-12T07:39:01;27243.38;;;-136.87
14666;BMP280;7420;53.574;10.040;2023-09-12T07:41:27;27211.03;;;-136.87
14666;BMP280;7420;53.574;10.040;2023-09-12T07:43:52;27352.63;;;-136.87
14666;BMP280;7420;53.574;10.040;2023-09-12T07:46:18;27289.91;;;-136.87
14666;BMP280;7420;53.574;10.040;2023-09-12T07:48:43;27223.16;;;-136.87
14666;BMP280;7420;53.574;10.040;2023-09-12T07:51:15;27134.16;;;-136.87
14666;BMP280;7420;53.574;10.040;2023-09-12T07:53:42;27113.94;;;-136.87
14666;BMP280;7420;53.574;10.040;2023-09-12T07:56:08;27154.38;;;-136.87
14666;BMP280;7420;53.574;10.040;2023-09-12T07:58:34;27194.84;;;-136.87
14666;BMP280;7420;53.574;10.040;2023-09-12T08:01:04;27469.94;;;-136.87
14666;BMP280;7420;53.574;10.040;2023-09-12T08:03:30;27372.84;;;-136.87
14666;BMP280;7420;53.574;10.040;2023-09-12T08:05:56;27245.41;;;-136.87
14666;BMP280;7420;53.574;10.040;2023-09-12T08:08:22;27399.16;;;-136.87
14666;BMP280;7420;53.574;10.040;2023-09-12T08:10:48;27225.19;;;-136.87
14666;BMP280;7420;53.574;10.040;2023-09-12T08:13:14;27227.19;;;-136.87
14666;BMP280;7420;53.574;10.040;2023-09-12T08:15:39;26968.28;;;-136.87
14666;BMP280;7420;53.574;10.040;2023-09-12T08:18:04;26521.31;;;-136.87
14666;BMP280;7420;53.574;10.040;2023-09-12T08:20:30;26114.88;;;-136.87
14666;BMP280;7420;53.574;10.040;2023-09-12T08:22:55;25746.88;;;-136.87
14666;BMP280;7420;53.574;10.040;2023-09-12T08:25:21;25993.56;;;-136.87
14666;BMP280;7420;53.574;10.040;2023-09-12T08:27:46;25653.91;;;-136.87
14666;BMP280;7420;53.574;10.040;2023-09-12T08:30:12;25799.47;;;-136.87
14666;BMP280;7420;53.574;10.040;2023-09-12T08:32:39;25581.13;;;-136.87
14666;BMP280;7420;53.574;10.040;2023-09-12T08:35:06;25158.63;;;-136.87
14666;BMP280;7420;53.574;10.040;2023-09-12T08:37:31;25108.09;;;-136.87
14666;BMP280;7420;53.574;10.040;2023-09-12T08:39:57;24833.22;;;-136.87
14666;BMP280;7420;53.574;10.040;2023-09-12T08:42:26;24677.59;;;-136.87
14666;BMP280;7420;53.574;10.040;2023-09-12T08:44:52;25132.34;;;-136.87
14666;BMP280;7420;53.574;10.040;2023-09-12T08:47:19;25449.72;;;-136.87
14666;BMP280;7420;53.574;10.040;2023-09-12T08:49:46;24916.09;;;-136.87
14666;BMP280;7420;53.574;10.040;2023-09-12T08:52:11;25170.75;;;-136.87
14666;BMP280;7420;53.574;10.040;2023-09-12T08:54:37;25296.09;;;-136.87
14666;BMP280;7420;53.574;10.040;2023-09-12T08:57:03;25156.59;;;-136.87
14666;BMP280;7420;53.574;10.040;2023-09-12T08:59:31;24887.78;;;-136.87
14666;BMP280;7420;53.574;10.040;2023-09-12T09:01:58;24988.84;;;-136.87
14666;BMP280;7420;53.574;10.040;2023-09-12T09:09:18;24946.41;;;-136.87
14666;BMP280;7420;53.574;10.040;2023-09-12T09:11:44;24819.06;;;-136.87
14666;BMP280;7420;53.574;10.040;2023-09-12T09:14:09;24546.25;;;-136.87
14666;BMP280;7420;53.574;10.040;2023-09-12T09:16:34;24635.16;;;-136.87
14666;BMP280;7420;53.574;10.040;2023-09-12T09:19:02;24998.94;;;-136.87
14666;BMP280;7420;53.574;10.040;2023-09-12T09:21:31;25193.00;;;-136.87
14666;BMP280;7420;53.574;10.040;2023-09-12T09:24:06;25152.56;;;-136.87
14666;BMP280;7420;53.574;10.040;2023-09-12T09:26:47;25385.03;;;-136.87
14666;BMP280;7420;53.574;10.040;2023-09-12T09:29:19;24946.41;;;-136.87
14666;BMP280;7420;53.574;10.040;2023-09-12T09:31:50;24255.25;;;-136.87
14666;BMP280;7420;53.574;10.040;2023-09-12T09:34:20;23669.31;;;-136.87
14666;BMP280;7420;53.574;10.040;2023-09-12T09:36:54;23544.06;;;-136.87
14666;BMP280;7420;53.574;10.040;2023-09-12T09:39:22;22812.88;;;-136.87
14666;BMP280;7420;53.574;10.040;2023-09-12T09:41:49;22441.31;;;-136.87
14666;BMP280;7420;53.574;10.040;2023-09-12T09:44:14;22122.28;;;-136.87
14666;BMP280;7420;53.574;10.040;2023-09-12T09:46:43;22437.28;;;-136.87
14666;BMP280;7420;53.574;10.040;2023-09-12T09:49:16;22372.66;;;-136.87
14666;BMP280;7420;53.574;10.040;2023-09-12T09:51:44;21496.44;;;-136.87
14666;BMP280;7420;53.574;10.040;2023-09-12T09:54:11;21439.91;;;-136.87
14666;BMP280;7420;53.574;10.040;2023-09-12T09:56:50;21413.66;;;-136.87
14666;BMP280;7420;53.574;10.040;2023-09-12T09:59:17;22267.66;;;-136.87
14666;BMP280;7420;53.574;10.040;2023-09-12T10:01:44;22663.44;;;-136.87
14666;BMP280;7420;53.574;10.040;2023-09-12T10:04:10;22429.19;;;-136.87
14666;BMP280;7420;53.574;10.040;2023-09-12T10:06:36;22269.69;;;-136.87
14666;BMP280;7420;53.574;10.040;2023-09-12T10:09:06;21892.13;;;-136.87
14666;BMP280;7420;53.574;10.040;2023-09-12T10:11:32;22055.66;;;-136.87
14666;BMP280;7420;53.574;10.040;2023-09-12T10:14:03;21647.84;;;-136.87
14666;BMP280;7420;53.574;10.040;2023-09-12T10:16:32;21888.06;;;-136.87
14666;BMP280;7420;53.574;10.040;2023-09-12T10:19:18;21706.38;;;-136.87
14666;BMP280;7420;53.574;10.040;2023-09-12T10:24:39;22425.16;;;-136.87
14666;BMP280;7420;53.574;10.040;2023-09-12T10:27:08;23067.38;;;-136.87
14666;BMP280;7420;53.574;10.040;2023-09-12T10:29:35;23529.94;;;-136.87
14666;BMP280;7420;53.574;10.040;2023-09-12T10:32:00;23230.97;;;-136.87
14666;BMP280;7420;53.574;10.040;2023-09-12T10:34:27;23230.97;;;-136.87
14666;BMP280;7420;53.574;10.040;2023-09-12T10:36:55;23507.72;;;-136.87
14666;BMP280;7420;53.574;10.040;2023-09-12T10:39:23;23507.72;;;-136.87
14666;BMP280;7420;53.574;10.040;2023-09-12T10:41:49;23507.72;;;-136.87
14666;BMP280;7420;53.574;10.040;2023-09-12T10:44:16;23507.72;;;-136.87
14666;BMP280;7420;53.574;10.040;2023-09-12T10:46:43;23507.72;;;-136.87
14666;BMP280;7420;53.574;10.040;2023-09-12T10:49:10;23507.72;;;-136.87
14666;BMP280;7420;53.574;10.040;2023-09-12T10:51:43;22487.75;;;-136.87
14666;BMP280;7420;53.574;10.040;2023-09-12T10:54:14;22487.75;;;-136.87
14666;BMP280;7420;53.574;10.040;2023-09-12T10:56:40;23192.59;;;-136.87
14666;BMP280;7420;53.574;10.040;2023-09-12T11:01:43;24020.88;;;-136.87
14666;BMP280;7420;53.574;10.040;2023-09-12T11:06:49;24740.25;;;-136.87
14666;BMP280;7420;53.574;10.040;2023-09-12T11:11:44;24740.25;;;-136.87
14666;BMP280;7420;53.574;10.040;2023-09-12T11:14:12;24740.25;;;-136.87
14666;BMP280;7420;53.574;10.040;2023-09-12T11:16:37;24740.25;;;-136.87
14666;BMP280;7420;53.574;10.040;2023-09-12T11:21:46;24740.25;;;-136.87
14666;BMP280;7420;53.574;10.040;2023-09-12T11:24:12;24740.25;;;-136.87
14666;BMP280;7420;53.574;10.040;2023-09-12T11:27:00;24740.25;;;-136.87
14666;BMP280;7420;53.574;10.040;2023-09-12T11:29:27;24740.25;;;-136.87
14666;BMP280;7420;53.574;10.040;2023-09-12T11:31:58;24740.25;;;-136.87
14666;BMP280;7420;53.574;10.040;2023-09-12T11:34:27;24740.25;;;-136.87
14666;BMP280;7420;53.574;10.040;2023-09-12T11:36:58;24740.25;;;-136.87
14666;BMP280;7420;53.574;10.040;2023-09-12T11:39:30;24631.13;;;-136.87
14666;BMP280;7420;53.574;10.040;2023-09-12T11:41:57;24631.13;;;-136.87
14666;BMP280;7420;53.574;10.040;2023-09-12T11:44:23;24631.13;;;-136.87
14666;BMP280;7420;53.574;10.040;2023-09-12T11:46:49;24631.13;;;-136.87
14666;BMP280;7420;53.574;10.040;2023-09-12T11:49:15;24631.13;;;-136.87
14666;BMP280;7420;53.574;10.040;2023-09-12T11:51:49;24942.34;;;-136.87
14666;BMP280;7420;53.574;10.040;2023-09-12T11:54:17;24942.34;;;-136.87
14666;BMP280;7420;53.574;10.040;2023-09-12T11:56:43;24942.34;;;-136.87
14666;BMP280;7420;53.574;10.040;2023-09-12T11:59:08;24942.34;;;-136.87
14666;BMP280;7420;53.574;10.040;2023-09-12T12:01:34;24566.44;;;-136.87
14666;BMP280;7420;53.574;10.040;2023-09-12T12:03:59;24445.19;;;-136.87
14666;BMP280;7420;53.574;10.040;2023-09-12T12:06:25;24445.19;;;-136.87
14666;BMP280;7420;53.574;10.040;2023-09-12T12:08:51;24445.19;;;-136.87
14666;BMP280;7420;53.574;10.040;2023-09-12T12:11:19;24445.19;;;-136.87
14666;BMP280;7420;53.574;10.040;2023-09-12T12:13:45;24445.19;;;-136.87
14666;BMP280;7420;53.574;10.040;2023-09-12T12:16:17;24445.19;;;-136.87
14666;BMP280;7420;53.574;10.040;2023-09-12T12:18:43;24445.19;;;-136.87
14666;BMP280;7420;53.574;10.040;2023-09-12T12:21:08;24445.19;;;-136.87
14666;BMP280;7420;53.574;10.040;2023-09-12T12:23:33;24445.19;;;-136.87
14666;BMP280;7420;53.574;10.040;2023-09-12T12:26:07;24445.19;;;-136.87
14666;BMP280;7420;53.574;10.040;2023-09-12T12:28:35;24445.19;;;-136.87
14666;BMP280;7420;53.574;10.040;2023-09-12T12:31:00;24679.63;;;-136.87
14666;BMP280;7420;53.574;10.040;2023-09-12T12:33:26;24679.63;;;-136.87
14666;BMP280;7420;53.574;10.040;2023-09-12T12:36:05;24679.63;;;-136.87
14666;BMP280;7420;53.574;10.040;2023-09-12T12:38:37;24679.63;;;-136.87
14666;BMP280;7420;53.574;10.040;2023-09-12T12:41:02;24679.63;;;-136.87
14666;BMP280;7420;53.574;10.040;2023-09-12T12:43:28;24679.63;;;-136.87
14666;BMP280;7420;53.574;10.040;2023-09-12T12:45:58;24679.63;;;-136.87
14666;BMP280;7420;53.574;10.040;2023-09-12T12:48:43;24679.63;;;-136.87
14666;BMP280;7420;53.574;10.040;2023-09-12T12:51:20;24679.63;;;-136.87
14666;BMP280;7420;53.574;10.040;2023-09-12T12:53:49;22911.84;;;-136.87
14666;BMP280;7420;53.574;10.040;2023-09-12T12:56:26;22568.53;;;-136.87
14666;BMP280;7420;53.574;10.040;2023-09-12T12:58:55;22568.53;;;-136.87
14666;BMP280;7420;53.574;10.040;2023-09-12T13:01:22;21825.50;;;-136.87
14666;BMP280;7420;53.574;10.040;2023-09-12T13:03:48;21825.50;;;-136.87
14666;BMP280;7420;53.574;10.040;2023-09-12T13:06:15;21825.50;;;-136.87
14666;BMP280;7420;53.574;10.040;2023-09-12T13:08:45;21825.50;;;-136.87
14666;BMP280;7420;53.574;10.040;2023-09-12T13:11:13;21825.50;;;-136.87
14666;BMP280;7420;53.574;10.040;2023-09-12T13:13:40;21825.50;;;-136.87
14666;BMP280;7420;53.574;10.040;2023-09-12T13:16:07;21825.50;;;-136.87
14666;BMP280;7420;53.574;10.040;2023-09-12T13:18:35;21825.50;;;-136.87
14666;BMP280;7420;53.574;10.040;2023-09-12T13:21:01;21825.50;;;-136.87
14666;BMP280;7420;53.574;10.040;2023-09-12T13:23:27;21825.50;;;-136.87
14666;BMP280;7420;53.574;10.040;2023-09-12T13:25:53;21825.50;;;-136.87
14666;BMP280;7420;53.574;10.040;2023-09-12T13:28:18;21825.50;;;-136.87
14666;BMP280;7420;53.574;10.040;2023-09-12T13:30:44;21825.50;;;-136.87
14666;BMP280;7420;53.574;10.040;2023-09-12T13:33:10;21825.50;;;-136.87
14666;BMP280;7420;53.574;10.040;2023-09-12T13:35:36;21825.50;;;-136.87
14666;BMP280;7420;53.574;10.040;2023-09-12T13:38:02;21825.50;;;-136.87
14666;BMP280;7420;53.574;10.040;2023-09-12T13:40:29;21825.50;;;-136.87
14666;BMP280;7420;53.574;10.040;2023-09-12T13:42:54;21825.50;;;-136.87
14666;BMP280;7420;53.574;10.040;2023-09-12T13:45:19;21825.50;;;-136.87
14666;BMP280;7420;53.574;10.040;2023-09-12T13:47:45;21825.50;;;-136.87
14666;BMP280;7420;53.574;10.040;2023-09-12T13:50:10;21825.50;;;-136.87
14666;BMP280;7420;53.574;10.040;2023-09-12T13:52:35;21825.50;;;-136.87
14666;BMP280;7420;53.574;10.040;2023-09-12T13:55:01;21825.50;;;-136.87
14666;BMP280;7420;53.574;10.040;2023-09-12T13:57:28;21825.50;;;-136.87
14666;BMP280;7420;53.574;10.040;2023-09-12T13:59:54;21825.50;;;-136.87
14666;BMP280;7420;53.574;10.040;2023-09-12T14:02:19;21825.50;;;-136.87
14666;BMP280;7420;53.574;10.040;2023-09-12T14:04:45;20570.03;;;-136.87
14666;BMP280;7420;53.574;10.040;2023-09-12T14:07:10;20570.03;;;-136.87
14666;BMP280;7420;53.574;10.040;2023-09-12T14:09:36;20570.03;;;-136.87
14666;BMP280;7420;53.574;10.040;2023-09-12T14:12:01;20570.03;;;-136.87